createdAt,value
2023-06-30T00:00:34.545Z,408.00
2023-06-30T00:01:34.615Z,407.00
2023-06-30T00:02:34.642Z,407.00
2023-06-30T00:03:34.740Z,410.00
2023-06-30T00:04:34.669Z,410.00
2023-06-30T00:05:34.628Z,410.00
2023-06-30T00:06:34.627Z,410.00
2023-06-30T00:07:34.732Z,412.00
2023-06-30T00:08:34.668Z,411.00
2023-06-30T00:09:34.704Z,409.00
2023-06-30T00:10:34.703Z,409.00
2023-06-30T00:11:34.734Z,412.00
2023-06-30T00:12:34.857Z,411.00
2023-06-30T00:13:34.789Z,410.00
2023-06-30T00:14:34.783Z,411.00
2023-06-30T00:15:34.849Z,413.00
2023-06-30T00:16:34.901Z,415.00
2023-06-30T00:17:34.847Z,414.00
2023-06-30T00:18:34.857Z,415.00
2023-06-30T00:19:34.862Z,415.00
2023-06-30T00:20:35.073Z,413.00
2023-06-30T00:21:34.893Z,412.00
2023-06-30T00:22:34.938Z,413.00
2023-06-30T00:23:34.947Z,413.00
2023-06-30T00:24:34.974Z,415.00
2023-06-30T00:25:34.979Z,417.00
2023-06-30T00:26:35.002Z,416.00
2023-06-30T00:27:35.010Z,415.00
2023-06-30T00:28:35.064Z,415.00
2023-06-30T00:29:35.068Z,414.00
2023-06-30T00:30:35.070Z,413.00
2023-06-30T00:31:35.196Z,409.00
2023-06-30T00:32:35.140Z,408.00
2023-06-30T00:33:35.129Z,412.00
2023-06-30T00:34:35.149Z,412.00
2023-06-30T00:35:35.162Z,412.00
2023-06-30T00:36:35.203Z,413.00
2023-06-30T00:37:35.206Z,413.00
2023-06-30T00:38:35.281Z,412.00
2023-06-30T00:39:35.272Z,415.00
2023-06-30T00:40:35.281Z,415.00
2023-06-30T00:41:35.293Z,414.00
2023-06-30T00:42:35.317Z,414.00
2023-06-30T00:43:35.334Z,415.00
2023-06-30T00:44:35.337Z,413.00
2023-06-30T00:45:35.371Z,412.00
2023-06-30T00:46:35.419Z,411.00
2023-06-30T00:47:35.413Z,411.00
2023-06-30T00:48:35.409Z,415.00
2023-06-30T00:49:35.429Z,416.00
2023-06-30T00:50:35.446Z,413.00
2023-06-30T00:51:35.473Z,413.00
2023-06-30T00:52:35.478Z,414.00
2023-06-30T00:53:35.513Z,416.00
2023-06-30T00:54:35.529Z,416.00
2023-06-30T00:55:35.539Z,417.00
2023-06-30T00:56:35.584Z,419.00
2023-06-30T00:57:35.593Z,417.00
2023-06-30T00:58:35.598Z,415.00
2023-06-30T00:59:35.661Z,417.00
2023-06-30T01:00:35.656Z,418.00
2023-06-30T01:01:35.694Z,418.00
2023-06-30T01:02:35.740Z,418.00
2023-06-30T01:03:35.772Z,421.00
2023-06-30T01:04:35.775Z,422.00
2023-06-30T01:05:35.745Z,421.00
2023-06-30T01:06:35.777Z,421.00
2023-06-30T01:07:35.834Z,420.00
2023-06-30T01:08:35.825Z,420.00
2023-06-30T01:09:35.852Z,421.00
2023-06-30T01:10:35.880Z,420.00
2023-06-30T01:11:35.890Z,419.00
2023-06-30T01:12:35.961Z,418.00
2023-06-30T01:13:35.947Z,418.00
2023-06-30T01:14:35.972Z,420.00
2023-06-30T01:15:36.009Z,420.00
2023-06-30T01:16:36.087Z,422.00
2023-06-30T01:17:36.056Z,425.00
2023-06-30T01:18:36.066Z,424.00
2023-06-30T01:19:36.109Z,422.00
2023-06-30T01:20:36.118Z,422.00
2023-06-30T01:21:36.150Z,422.00
2023-06-30T01:22:36.152Z,422.00
2023-06-30T01:23:36.192Z,423.00
2023-06-30T01:24:36.231Z,424.00
2023-06-30T01:25:36.287Z,427.00
2023-06-30T01:26:36.261Z,426.00
2023-06-30T01:27:36.302Z,426.00
2023-06-30T01:28:36.381Z,425.00
2023-06-30T01:29:36.348Z,425.00
2023-06-30T01:30:36.384Z,424.00
2023-06-30T01:31:36.411Z,425.00
2023-06-30T01:32:36.449Z,424.00
2023-06-30T01:33:36.478Z,424.00
2023-06-30T01:34:36.482Z,424.00
2023-06-30T01:35:36.551Z,424.00
2023-06-30T01:36:36.534Z,422.00
2023-06-30T01:37:36.587Z,422.00
2023-06-30T01:38:36.592Z,421.00
2023-06-30T01:39:36.627Z,420.00
2023-06-30T01:40:36.654Z,420.00
2023-06-30T01:41:36.696Z,419.00
2023-06-30T01:42:36.714Z,420.00
2023-06-30T01:43:36.751Z,418.00
2023-06-30T01:44:36.803Z,419.00
2023-06-30T01:45:36.837Z,420.00
2023-06-30T01:46:36.917Z,420.00
2023-06-30T01:47:36.917Z,419.00
2023-06-30T01:48:36.923Z,418.00
2023-06-30T01:49:36.964Z,416.00
2023-06-30T01:50:36.979Z,414.00
2023-06-30T01:51:37.044Z,414.00
2023-06-30T01:52:37.071Z,415.00
2023-06-30T01:53:37.071Z,415.00
2023-06-30T01:54:37.103Z,416.00
2023-06-30T01:55:37.171Z,417.00
2023-06-30T01:56:37.186Z,417.00
2023-06-30T01:57:37.183Z,420.00
2023-06-30T01:58:37.241Z,417.00
2023-06-30T01:59:37.274Z,418.00
2023-06-30T02:00:37.272Z,420.00
2023-06-30T02:01:37.395Z,421.00
2023-06-30T02:02:37.410Z,423.00
2023-06-30T02:03:37.398Z,424.00
2023-06-30T02:04:37.420Z,423.00
2023-06-30T02:05:37.438Z,420.00
2023-06-30T02:06:37.486Z,419.00
2023-06-30T02:07:37.566Z,419.00
2023-06-30T02:08:37.550Z,418.00
2023-06-30T02:09:48.147Z,416.00
2023-06-30T02:10:38.563Z,416.00
2023-06-30T02:11:37.573Z,418.00
2023-06-30T02:12:37.569Z,419.00
2023-06-30T02:13:37.532Z,419.00
2023-06-30T02:14:37.553Z,420.00
2023-06-30T02:15:37.568Z,419.00
2023-06-30T02:16:37.591Z,420.00
2023-06-30T02:17:37.543Z,418.00
2023-06-30T02:18:37.497Z,415.00
2023-06-30T02:19:37.499Z,417.00
2023-06-30T02:20:37.504Z,418.00
2023-06-30T02:21:37.491Z,419.00
2023-06-30T02:22:37.501Z,418.00
2023-06-30T02:23:37.477Z,418.00
2023-06-30T02:24:37.447Z,419.00
2023-06-30T02:25:37.445Z,421.00
2023-06-30T02:26:37.470Z,424.00
2023-06-30T02:27:37.533Z,423.00
2023-06-30T02:28:37.561Z,423.00
2023-06-30T02:29:37.592Z,425.00
2023-06-30T02:30:37.608Z,424.00
2023-06-30T02:31:37.672Z,424.00
2023-06-30T02:32:37.717Z,426.00
2023-06-30T02:33:37.730Z,423.00
2023-06-30T02:34:37.778Z,422.00
2023-06-30T02:35:37.846Z,422.00
2023-06-30T02:36:37.829Z,424.00
2023-06-30T02:37:37.869Z,425.00
2023-06-30T02:38:37.874Z,425.00
2023-06-30T02:39:37.917Z,426.00
2023-06-30T02:40:37.971Z,427.00
2023-06-30T02:41:38.006Z,426.00
2023-06-30T02:42:38.032Z,424.00
2023-06-30T02:43:38.056Z,425.00
2023-06-30T02:44:38.115Z,423.00
2023-06-30T02:45:38.177Z,423.00
2023-06-30T02:46:38.187Z,425.00
2023-06-30T02:47:38.244Z,425.00
2023-06-30T02:48:38.243Z,425.00
2023-06-30T02:49:38.280Z,425.00
2023-06-30T02:50:38.328Z,425.00
2023-06-30T02:51:38.351Z,426.00
2023-06-30T02:52:38.388Z,427.00
2023-06-30T02:53:38.446Z,429.00
2023-06-30T02:54:38.459Z,428.00
2023-06-30T02:55:39.371Z,427.00
2023-06-30T02:56:38.538Z,428.00
2023-06-30T02:57:38.631Z,429.00
2023-06-30T02:58:38.657Z,430.00
2023-06-30T02:59:38.650Z,432.00
2023-06-30T03:00:38.714Z,430.00
2023-06-30T03:01:38.837Z,427.00
2023-06-30T03:02:39.014Z,430.00
2023-06-30T03:03:38.871Z,431.00
2023-06-30T03:04:38.852Z,430.00
2023-06-30T03:05:38.899Z,431.00
2023-06-30T03:06:38.938Z,429.00
2023-06-30T03:07:39.010Z,429.00
2023-06-30T03:08:39.013Z,428.00
2023-06-30T03:09:39.037Z,427.00
2023-06-30T03:10:39.092Z,426.00
2023-06-30T03:11:39.132Z,422.00
2023-06-30T03:12:39.152Z,422.00
2023-06-30T03:13:39.217Z,425.00
2023-06-30T03:14:39.230Z,425.00
2023-06-30T03:15:39.253Z,426.00
2023-06-30T03:16:39.324Z,427.00
2023-06-30T03:17:39.369Z,425.00
2023-06-30T03:18:39.366Z,423.00
2023-06-30T03:19:39.383Z,424.00
2023-06-30T03:20:39.448Z,423.00
2023-06-30T03:21:39.464Z,424.00
2023-06-30T03:22:39.492Z,424.00
2023-06-30T03:23:39.522Z,424.00
2023-06-30T03:24:39.543Z,423.00
2023-06-30T03:25:39.594Z,424.00
2023-06-30T03:26:39.656Z,425.00
2023-06-30T03:27:39.670Z,427.00
2023-06-30T03:28:39.681Z,427.00
2023-06-30T03:29:39.718Z,427.00
2023-06-30T03:30:39.808Z,428.00
2023-06-30T03:31:39.816Z,430.00
2023-06-30T03:32:39.919Z,430.00
2023-06-30T03:33:39.849Z,429.00
2023-06-30T03:34:39.927Z,430.00
2023-06-30T03:35:39.932Z,429.00
2023-06-30T03:36:39.971Z,429.00
2023-06-30T03:37:40.019Z,430.00
2023-06-30T03:38:40.016Z,431.00
2023-06-30T03:39:40.066Z,433.00
2023-06-30T03:40:40.131Z,431.00
2023-06-30T03:41:40.129Z,432.00
2023-06-30T03:42:40.171Z,431.00
2023-06-30T03:43:40.202Z,429.00
2023-06-30T03:44:40.260Z,429.00
2023-06-30T03:45:40.276Z,431.00
2023-06-30T03:46:40.318Z,430.00
2023-06-30T03:47:40.352Z,428.00
2023-06-30T03:48:40.364Z,423.00
2023-06-30T03:49:40.412Z,423.00
2023-06-30T03:50:40.446Z,422.00
2023-06-30T03:51:40.490Z,424.00
2023-06-30T03:52:40.528Z,426.00
2023-06-30T03:53:40.571Z,427.00
2023-06-30T03:54:40.608Z,427.00
2023-06-30T03:55:40.652Z,429.00
2023-06-30T03:56:40.686Z,430.00
2023-06-30T03:57:40.714Z,432.00
2023-06-30T03:58:40.763Z,433.00
2023-06-30T03:59:40.830Z,435.00
2023-06-30T04:00:40.869Z,433.00
2023-06-30T04:01:40.892Z,432.00
2023-06-30T04:02:41.151Z,431.00
2023-06-30T04:03:41.131Z,431.00
2023-06-30T04:04:41.067Z,432.00
2023-06-30T04:05:41.039Z,431.00
2023-06-30T04:06:41.076Z,432.00
2023-06-30T04:07:41.163Z,433.00
2023-06-30T04:08:41.164Z,432.00
2023-06-30T04:09:41.204Z,433.00
2023-06-30T04:10:41.227Z,430.00
2023-06-30T04:11:41.272Z,427.00
2023-06-30T04:12:41.329Z,428.00
2023-06-30T04:13:41.343Z,429.00
2023-06-30T04:14:41.386Z,427.00
2023-06-30T04:15:41.418Z,426.00
2023-06-30T04:16:41.505Z,423.00
2023-06-30T04:17:41.561Z,425.00
2023-06-30T04:18:41.548Z,425.00
2023-06-30T04:19:41.595Z,427.00
2023-06-30T04:20:41.637Z,426.00
2023-06-30T04:21:41.659Z,427.00
2023-06-30T04:22:41.714Z,426.00
2023-06-30T04:23:41.753Z,425.00
2023-06-30T04:24:41.802Z,423.00
2023-06-30T04:25:41.851Z,423.00
2023-06-30T04:26:41.882Z,424.00
2023-06-30T04:27:41.908Z,426.00
2023-06-30T04:28:41.966Z,426.00
2023-06-30T04:29:41.997Z,429.00
2023-06-30T04:30:42.029Z,430.00
2023-06-30T04:31:42.121Z,428.00
2023-06-30T04:32:42.147Z,426.00
2023-06-30T04:33:42.172Z,425.00
2023-06-30T04:34:42.193Z,424.00
2023-06-30T04:35:42.363Z,424.00
2023-06-30T04:36:42.293Z,424.00
2023-06-30T04:37:42.343Z,423.00
2023-06-30T04:38:42.431Z,423.00
2023-06-30T04:39:42.430Z,422.00
2023-06-30T04:40:42.479Z,422.00
2023-06-30T04:41:42.518Z,422.00
2023-06-30T04:42:42.539Z,421.00
2023-06-30T04:43:42.581Z,421.00
2023-06-30T04:44:42.636Z,420.00
2023-06-30T04:45:42.927Z,418.00
2023-06-30T04:46:42.820Z,417.00
2023-06-30T04:47:42.792Z,417.00
2023-06-30T04:48:42.811Z,416.00
2023-06-30T04:49:42.847Z,418.00
2023-06-30T04:50:42.932Z,420.00
2023-06-30T04:51:42.939Z,421.00
2023-06-30T04:52:43.005Z,420.00
2023-06-30T04:53:43.037Z,420.00
2023-06-30T04:54:43.068Z,418.00
2023-06-30T04:55:43.277Z,417.00
2023-06-30T04:56:43.157Z,415.00
2023-06-30T04:57:43.203Z,416.00
2023-06-30T04:58:43.237Z,415.00
2023-06-30T04:59:43.307Z,418.00
2023-06-30T05:00:43.315Z,419.00
2023-06-30T05:01:43.380Z,417.00
2023-06-30T05:02:43.432Z,416.00
2023-06-30T05:03:43.497Z,414.00
2023-06-30T05:04:43.482Z,412.00
2023-06-30T05:05:43.828Z,412.00
2023-06-30T05:06:43.593Z,411.00
2023-06-30T05:07:43.671Z,412.00
2023-06-30T05:08:43.652Z,411.00
2023-06-30T05:09:43.706Z,413.00
2023-06-30T05:10:43.752Z,413.00
2023-06-30T05:11:43.785Z,413.00
2023-06-30T05:12:43.851Z,412.00
2023-06-30T05:13:43.890Z,412.00
2023-06-30T05:14:43.937Z,413.00
2023-06-30T05:15:44.273Z,413.00
2023-06-30T05:16:43.988Z,416.00
2023-06-30T05:17:44.033Z,416.00
2023-06-30T05:18:44.020Z,415.00
2023-06-30T05:19:44.074Z,416.00
2023-06-30T05:20:44.183Z,414.00
2023-06-30T05:21:44.171Z,413.00
2023-06-30T05:22:44.245Z,413.00
2023-06-30T05:23:44.327Z,411.00
2023-06-30T05:24:44.280Z,411.00
2023-06-30T05:25:44.534Z,411.00
2023-06-30T05:26:44.433Z,411.00
2023-06-30T05:27:44.523Z,411.00
2023-06-30T05:28:52.711Z,412.00
2023-06-30T05:29:45.508Z,421.00
2023-06-30T05:30:44.516Z,430.00
2023-06-30T05:31:44.542Z,429.00
2023-06-30T05:32:44.534Z,435.00
2023-06-30T05:33:44.511Z,466.00
2023-06-30T05:34:44.551Z,468.00
2023-06-30T05:35:44.699Z,469.00
2023-06-30T05:36:44.488Z,474.00
2023-06-30T05:37:44.466Z,476.00
2023-06-30T05:38:44.520Z,491.00
2023-06-30T05:39:44.433Z,518.00
2023-06-30T05:40:44.429Z,520.00
2023-06-30T05:41:44.447Z,523.00
2023-06-30T05:42:44.497Z,556.00
2023-06-30T05:43:44.537Z,542.00
2023-06-30T05:44:45.493Z,522.00
2023-06-30T05:45:44.752Z,598.00
2023-06-30T05:46:44.603Z,623.00
2023-06-30T05:47:44.597Z,515.00
2023-06-30T05:48:44.627Z,513.00
2023-06-30T05:49:44.597Z,505.00
2023-06-30T05:50:44.623Z,490.00
2023-06-30T05:51:44.624Z,472.00
2023-06-30T05:52:44.630Z,460.00
2023-06-30T05:53:44.635Z,453.00
2023-06-30T05:54:44.688Z,451.00
2023-06-30T05:55:44.847Z,446.00
2023-06-30T05:56:44.674Z,444.00
2023-06-30T05:57:44.701Z,442.00
2023-06-30T05:58:44.726Z,438.00
2023-06-30T05:59:44.743Z,435.00
2023-06-30T06:00:44.760Z,434.00
2023-06-30T06:01:44.775Z,433.00
2023-06-30T06:02:44.888Z,431.00
2023-06-30T06:03:45.078Z,429.00
2023-06-30T06:04:44.998Z,426.00
2023-06-30T06:05:45.164Z,427.00
2023-06-30T06:06:44.877Z,426.00
2023-06-30T06:07:45.054Z,427.00
2023-06-30T06:08:44.920Z,427.00
2023-06-30T06:09:44.943Z,427.00
2023-06-30T06:10:45.000Z,427.00
2023-06-30T06:11:44.975Z,424.00
2023-06-30T06:12:45.020Z,424.00
2023-06-30T06:13:45.003Z,424.00
2023-06-30T06:14:45.010Z,425.00
2023-06-30T06:15:45.192Z,426.00
2023-06-30T06:16:45.099Z,426.00
2023-06-30T06:17:45.128Z,426.00
2023-06-30T06:18:46.550Z,433.00
2023-06-30T06:19:45.132Z,434.00
2023-06-30T06:20:45.126Z,438.00
2023-06-30T06:21:45.106Z,439.00
2023-06-30T06:22:45.097Z,442.00
2023-06-30T06:23:45.083Z,447.00
2023-06-30T06:24:45.104Z,452.00
2023-06-30T06:25:45.612Z,453.00
2023-06-30T06:26:45.098Z,456.00
2023-06-30T06:27:45.061Z,458.00
2023-06-30T06:28:45.058Z,459.00
2023-06-30T06:29:45.050Z,461.00
2023-06-30T06:30:45.523Z,468.00
2023-06-30T06:31:45.050Z,468.00
2023-06-30T06:32:45.108Z,467.00
2023-06-30T06:33:45.008Z,465.00
2023-06-30T06:34:45.006Z,473.00
2023-06-30T06:35:45.219Z,508.00
2023-06-30T06:36:45.010Z,500.00
2023-06-30T06:37:45.010Z,490.00
2023-06-30T06:38:44.988Z,489.00
2023-06-30T06:39:44.975Z,486.00
2023-06-30T06:40:44.973Z,484.00
2023-06-30T06:41:44.959Z,480.00
2023-06-30T06:42:44.973Z,486.00
2023-06-30T06:43:44.988Z,495.00
2023-06-30T06:44:44.952Z,506.00
2023-06-30T06:45:45.260Z,499.00
2023-06-30T06:46:45.086Z,494.00
2023-06-30T06:47:45.019Z,489.00
2023-06-30T06:48:44.967Z,482.00
2023-06-30T06:49:47.006Z,483.00
2023-06-30T06:50:44.995Z,486.00
2023-06-30T06:51:44.930Z,495.00
2023-06-30T06:52:44.892Z,498.00
2023-06-30T06:53:44.885Z,489.00
2023-06-30T06:54:44.895Z,506.00
2023-06-30T06:55:45.316Z,525.00
2023-06-30T06:56:44.859Z,517.00
2023-06-30T06:57:44.871Z,510.00
2023-06-30T06:58:44.877Z,506.00
2023-06-30T06:59:44.908Z,506.00
2023-06-30T07:00:44.943Z,499.00
2023-06-30T07:01:44.993Z,494.00
2023-06-30T07:02:45.050Z,484.00
2023-06-30T07:03:45.080Z,478.00
2023-06-30T07:04:45.128Z,469.00
2023-06-30T07:05:45.550Z,463.00
2023-06-30T07:06:45.219Z,456.00
2023-06-30T07:07:45.353Z,453.00
2023-06-30T07:08:45.333Z,448.00
2023-06-30T07:09:45.416Z,446.00
2023-06-30T07:10:45.457Z,445.00
2023-06-30T07:11:45.502Z,442.00
2023-06-30T07:12:45.569Z,436.00
2023-06-30T07:13:45.648Z,435.00
2023-06-30T07:14:47.934Z,432.00
2023-06-30T07:15:45.915Z,434.00
2023-06-30T07:16:45.727Z,432.00
2023-06-30T07:17:45.767Z,430.00
2023-06-30T07:18:45.764Z,430.00
2023-06-30T07:19:45.662Z,433.00
2023-06-30T07:20:45.653Z,441.00
2023-06-30T07:21:45.640Z,446.00
2023-06-30T07:22:45.618Z,446.00
2023-06-30T07:23:45.632Z,448.00
2023-06-30T07:24:45.647Z,445.00
2023-06-30T07:25:45.944Z,440.00
2023-06-30T07:26:45.618Z,441.00
2023-06-30T07:27:45.757Z,440.00
2023-06-30T07:28:45.620Z,439.00
2023-06-30T07:29:45.650Z,437.00
2023-06-30T07:30:45.596Z,438.00
2023-06-30T07:31:45.668Z,437.00
2023-06-30T07:32:45.614Z,433.00
2023-06-30T07:33:45.574Z,432.00
2023-06-30T07:34:45.578Z,432.00
2023-06-30T07:35:45.965Z,434.00
2023-06-30T07:36:45.559Z,428.00
2023-06-30T07:37:45.556Z,428.00
2023-06-30T07:38:45.525Z,426.00
2023-06-30T07:39:45.513Z,425.00
2023-06-30T07:40:55.930Z,425.00
2023-06-30T07:41:46.545Z,423.00
2023-06-30T07:42:45.534Z,421.00
2023-06-30T07:43:45.492Z,421.00
2023-06-30T07:44:45.521Z,421.00
2023-06-30T07:45:45.726Z,424.00
2023-06-30T07:46:45.485Z,430.00
2023-06-30T07:47:45.598Z,430.00
2023-06-30T07:48:45.619Z,429.00
2023-06-30T07:49:45.484Z,433.00
2023-06-30T07:50:58.810Z,432.00
2023-06-30T07:51:46.550Z,426.00
2023-06-30T07:52:45.538Z,423.00
2023-06-30T07:53:45.565Z,422.00
2023-06-30T07:54:45.538Z,421.00
2023-06-30T07:55:46.148Z,419.00
2023-06-30T07:56:45.529Z,420.00
2023-06-30T07:57:45.687Z,421.00
2023-06-30T07:58:45.500Z,418.00
2023-06-30T07:59:45.539Z,418.00
2023-06-30T08:00:45.485Z,418.00
2023-06-30T08:01:45.477Z,418.00
2023-06-30T08:02:45.540Z,419.00
2023-06-30T08:03:45.682Z,418.00
2023-06-30T08:04:45.585Z,417.00
2023-06-30T08:05:46.114Z,415.00
2023-06-30T08:06:45.494Z,412.00
2023-06-30T08:07:49.266Z,411.00
2023-06-30T08:08:46.488Z,409.00
2023-06-30T08:09:45.500Z,408.00
2023-06-30T08:10:45.505Z,406.00
2023-06-30T08:11:45.474Z,404.00
2023-06-30T08:12:45.470Z,407.00
2023-06-30T08:13:45.466Z,409.00
2023-06-30T08:14:45.504Z,406.00
2023-06-30T08:15:48.725Z,408.00
2023-06-30T08:16:45.499Z,408.00
2023-06-30T08:17:56.535Z,406.00
2023-06-30T08:18:51.309Z,403.00
2023-06-30T08:19:49.717Z,401.00
2023-06-30T08:20:45.492Z,400.00
2023-06-30T08:21:45.453Z,400.00
2023-06-30T08:22:47.030Z,400.00
2023-06-30T08:23:45.409Z,400.00
2023-06-30T08:24:45.382Z,401.00
2023-06-30T08:25:45.539Z,400.00
2023-06-30T08:26:45.364Z,399.00
2023-06-30T08:27:45.387Z,399.00
2023-06-30T08:28:45.358Z,399.00
2023-06-30T08:29:45.355Z,402.00
2023-06-30T08:30:45.372Z,400.00
2023-06-30T08:31:45.328Z,400.00
2023-06-30T08:32:45.357Z,398.00
2023-06-30T08:33:45.359Z,395.00
2023-06-30T08:34:45.392Z,394.00
2023-06-30T08:35:45.621Z,396.00
2023-06-30T08:36:45.477Z,395.00
2023-06-30T08:37:45.591Z,395.00
2023-06-30T08:38:45.601Z,395.00
2023-06-30T08:39:45.662Z,395.00
2023-06-30T08:40:45.737Z,393.00
2023-06-30T08:41:45.765Z,393.00
2023-06-30T08:42:45.832Z,393.00
2023-06-30T08:43:45.877Z,393.00
2023-06-30T08:44:45.969Z,394.00
2023-06-30T08:45:46.179Z,394.00
2023-06-30T08:46:46.108Z,393.00
2023-06-30T08:47:46.218Z,395.00
2023-06-30T08:48:46.151Z,393.00
2023-06-30T08:49:46.223Z,392.00
2023-06-30T08:50:46.267Z,390.00
2023-06-30T08:51:46.341Z,388.00
2023-06-30T08:52:46.382Z,385.00
2023-06-30T08:53:46.430Z,387.00
2023-06-30T08:54:46.507Z,388.00
2023-06-30T08:55:46.789Z,390.00
2023-06-30T08:56:46.607Z,390.00
2023-06-30T08:57:46.635Z,390.00
2023-06-30T08:58:46.654Z,392.00
2023-06-30T08:59:46.718Z,392.00
2023-06-30T09:00:46.762Z,393.00
2023-06-30T09:01:47.334Z,391.00
2023-06-30T09:02:46.928Z,390.00
2023-06-30T09:03:46.970Z,393.00
2023-06-30T09:04:46.960Z,392.00
2023-06-30T09:05:47.296Z,391.00
2023-06-30T09:06:46.989Z,389.00
2023-06-30T09:07:47.096Z,391.00
2023-06-30T09:08:47.080Z,390.00
2023-06-30T09:09:47.139Z,390.00
2023-06-30T09:10:47.170Z,390.00
2023-06-30T09:11:47.231Z,390.00
2023-06-30T09:12:47.316Z,390.00
2023-06-30T09:13:47.349Z,390.00
2023-06-30T09:14:48.115Z,390.00
2023-06-30T09:15:47.643Z,390.00
2023-06-30T09:16:47.561Z,390.00
2023-06-30T09:17:47.700Z,392.00
2023-06-30T09:18:47.604Z,394.00
2023-06-30T09:19:47.694Z,396.00
2023-06-30T09:20:47.746Z,392.00
2023-06-30T09:21:47.784Z,391.00
2023-06-30T09:22:51.696Z,390.00
2023-06-30T09:23:48.826Z,389.00
2023-06-30T09:24:47.793Z,391.00
2023-06-30T09:25:48.079Z,390.00
2023-06-30T09:26:47.785Z,392.00
2023-06-30T09:27:47.785Z,392.00
2023-06-30T09:28:47.846Z,393.00
2023-06-30T09:29:47.753Z,393.00
2023-06-30T09:30:47.858Z,393.00
2023-06-30T09:31:47.781Z,394.00
2023-06-30T09:32:47.814Z,394.00
2023-06-30T09:33:47.852Z,395.00
2023-06-30T09:34:47.914Z,395.00
2023-06-30T09:35:48.793Z,393.00
2023-06-30T09:36:48.008Z,397.00
2023-06-30T09:37:48.098Z,397.00
2023-06-30T09:38:48.157Z,396.00
2023-06-30T09:39:48.207Z,397.00
2023-06-30T09:40:48.334Z,395.00
2023-06-30T09:41:48.320Z,394.00
2023-06-30T09:42:48.504Z,394.00
2023-06-30T09:43:48.449Z,395.00
2023-06-30T09:44:48.485Z,395.00
2023-06-30T09:45:49.163Z,397.00
2023-06-30T09:46:48.562Z,397.00
2023-06-30T09:47:48.673Z,396.00
2023-06-30T09:48:48.676Z,396.00
2023-06-30T09:49:48.802Z,396.00
2023-06-30T09:50:48.814Z,396.00
2023-06-30T09:51:48.847Z,396.00
2023-06-30T09:52:48.903Z,394.00
2023-06-30T09:53:48.922Z,393.00
2023-06-30T09:54:49.003Z,393.00
2023-06-30T09:55:49.524Z,393.00
2023-06-30T09:56:49.092Z,395.00
2023-06-30T09:57:49.186Z,396.00
2023-06-30T09:58:49.635Z,396.00
2023-06-30T09:59:49.513Z,395.00
2023-06-30T10:00:49.314Z,397.00
2023-06-30T10:01:49.402Z,396.00
2023-06-30T10:02:49.503Z,393.00
2023-06-30T10:03:49.497Z,397.00
2023-06-30T10:04:49.524Z,400.00
2023-06-30T10:06:49.578Z,396.00
2023-06-30T10:07:49.603Z,395.00
2023-06-30T10:08:49.658Z,393.00
2023-06-30T10:09:49.613Z,393.00
2023-06-30T10:10:49.710Z,391.00
2023-06-30T10:11:49.687Z,390.00
2023-06-30T10:12:49.702Z,388.00
2023-06-30T10:13:49.701Z,387.00
2023-06-30T10:14:49.741Z,387.00
2023-06-30T10:15:50.061Z,387.00
2023-06-30T10:16:49.806Z,388.00
2023-06-30T10:17:49.859Z,391.00
2023-06-30T10:18:49.772Z,392.00
2023-06-30T10:19:49.792Z,390.00
2023-06-30T10:20:50.539Z,387.00
2023-06-30T10:21:49.848Z,389.00
2023-06-30T10:22:49.882Z,389.00
2023-06-30T10:23:49.905Z,390.00
2023-06-30T10:24:49.905Z,393.00
2023-06-30T10:25:50.579Z,392.00
2023-06-30T10:26:49.961Z,395.00
2023-06-30T10:27:49.989Z,395.00
2023-06-30T10:28:50.017Z,395.00
2023-06-30T10:29:50.021Z,396.00
2023-06-30T10:30:50.028Z,398.00
2023-06-30T10:31:50.031Z,398.00
2023-06-30T10:32:50.175Z,394.00
2023-06-30T10:33:50.189Z,391.00
2023-06-30T10:34:50.180Z,391.00
2023-06-30T10:35:50.244Z,392.00
2023-06-30T10:36:50.322Z,396.00
2023-06-30T10:37:50.339Z,399.00
2023-06-30T10:38:50.383Z,400.00
2023-06-30T10:39:50.419Z,436.00
2023-06-30T10:40:50.396Z,424.00
2023-06-30T10:41:50.433Z,420.00
2023-06-30T10:42:50.430Z,416.00
2023-06-30T10:43:50.469Z,414.00
2023-06-30T10:44:50.539Z,411.00
2023-06-30T10:45:50.590Z,412.00
2023-06-30T10:46:50.644Z,414.00
2023-06-30T10:47:50.699Z,419.00
2023-06-30T10:48:50.679Z,422.00
2023-06-30T10:49:50.703Z,426.00
2023-06-30T10:50:50.719Z,429.00
2023-06-30T10:51:50.751Z,430.00
2023-06-30T10:52:50.776Z,431.00
2023-06-30T10:53:50.774Z,432.00
2023-06-30T10:54:50.843Z,433.00
2023-06-30T10:55:51.037Z,434.00
2023-06-30T10:56:50.807Z,435.00
2023-06-30T10:57:50.851Z,435.00
2023-06-30T10:58:50.904Z,437.00
2023-06-30T10:59:50.953Z,432.00
2023-06-30T11:00:51.010Z,430.00
2023-06-30T11:01:51.073Z,428.00
2023-06-30T11:02:51.404Z,426.00
2023-06-30T11:03:51.307Z,425.00
2023-06-30T11:04:51.320Z,421.00
2023-06-30T11:05:51.526Z,421.00
2023-06-30T11:06:51.322Z,423.00
2023-06-30T11:07:51.386Z,421.00
2023-06-30T11:08:51.439Z,420.00
2023-06-30T11:09:51.490Z,418.00
2023-06-30T11:10:51.563Z,418.00
2023-06-30T11:11:52.028Z,419.00
2023-06-30T11:12:51.601Z,418.00
2023-06-30T11:13:51.647Z,418.00
2023-06-30T11:14:51.708Z,418.00
2023-06-30T11:15:54.382Z,419.00
2023-06-30T11:16:51.734Z,419.00
2023-06-30T11:17:51.787Z,421.00
2023-06-30T11:18:51.826Z,423.00
2023-06-30T11:19:51.724Z,424.00
2023-06-30T11:20:52.046Z,423.00
2023-06-30T11:21:51.682Z,425.00
2023-06-30T11:22:51.681Z,426.00
2023-06-30T11:23:51.667Z,426.00
2023-06-30T11:24:51.676Z,425.00
2023-06-30T11:25:51.671Z,424.00
2023-06-30T11:26:51.682Z,424.00
2023-06-30T11:27:51.663Z,423.00
2023-06-30T11:28:51.652Z,422.00
2023-06-30T11:29:51.809Z,423.00
2023-06-30T11:30:51.651Z,422.00
2023-06-30T11:31:51.627Z,420.00
2023-06-30T11:32:51.617Z,419.00
2023-06-30T11:33:51.632Z,417.00
2023-06-30T11:34:51.616Z,418.00
2023-06-30T11:35:51.603Z,419.00
2023-06-30T11:36:51.594Z,419.00
2023-06-30T11:37:51.608Z,420.00
2023-06-30T11:38:51.595Z,421.00
2023-06-30T11:39:51.576Z,423.00
2023-06-30T11:40:51.567Z,425.00
2023-06-30T11:41:51.552Z,424.00
2023-06-30T11:42:51.572Z,423.00
2023-06-30T11:43:51.541Z,421.00
2023-06-30T11:44:51.561Z,419.00
2023-06-30T11:45:51.544Z,417.00
2023-06-30T11:46:53.478Z,416.00
2023-06-30T11:47:51.563Z,415.00
2023-06-30T11:48:51.528Z,414.00
2023-06-30T11:49:51.561Z,412.00
2023-06-30T11:50:51.519Z,414.00
2023-06-30T11:51:51.526Z,413.00
2023-06-30T11:52:51.491Z,413.00
2023-06-30T11:53:51.484Z,412.00
2023-06-30T11:54:51.459Z,412.00
2023-06-30T11:55:51.500Z,412.00
2023-06-30T11:56:51.452Z,413.00
2023-06-30T11:57:51.465Z,412.00
2023-06-30T11:58:51.470Z,411.00
2023-06-30T11:59:51.447Z,409.00
2023-06-30T12:00:51.425Z,410.00
2023-06-30T12:01:51.439Z,410.00
2023-06-30T12:02:52.190Z,409.00
2023-06-30T12:03:51.495Z,407.00
2023-06-30T12:04:51.455Z,408.00
2023-06-30T12:05:51.411Z,407.00
2023-06-30T12:06:51.380Z,406.00
2023-06-30T12:07:51.380Z,406.00
2023-06-30T12:08:51.385Z,405.00
2023-06-30T12:09:51.360Z,406.00
2023-06-30T12:10:51.543Z,404.00
2023-06-30T12:11:51.345Z,404.00
2023-06-30T12:12:51.347Z,404.00
2023-06-30T12:13:51.333Z,405.00
2023-06-30T12:14:51.325Z,405.00
2023-06-30T12:15:51.537Z,403.00
2023-06-30T12:16:51.370Z,402.00
2023-06-30T12:17:51.417Z,400.00
2023-06-30T12:18:51.298Z,399.00
2023-06-30T12:19:51.298Z,399.00
2023-06-30T12:20:51.553Z,399.00
2023-06-30T12:21:51.291Z,399.00
2023-06-30T12:22:51.284Z,401.00
2023-06-30T12:23:51.275Z,400.00
2023-06-30T12:24:51.277Z,400.00
2023-06-30T12:25:51.270Z,398.00
2023-06-30T12:26:51.241Z,398.00
2023-06-30T12:27:51.228Z,396.00
2023-06-30T12:28:51.239Z,396.00
2023-06-30T12:29:51.232Z,397.00